Terminal Aerodrome Forecast
Issued by NWS Sterling, VA

Current Version | Previous Version | Graphics & Text | Print | Product List | Glossary On
Versions: 1 2 3 4 5 6 7 8 9 10 11 12 13 14 15 16 17 18 19 20 21
000
FTUS41 KLWX 110531
TAFIAD
TAF
KIAD 110531Z 1106/1212 VRB03KT P6SM BKN090
     FM111600 15006KT P6SM OVC090
     FM120400 18010KT P6SM OVC090
     FM120600 19010KT 5SM -RA OVC020 WS020/21040KT
     FM121000 20009KT 5SM -RA OVC010=

USA.gov is the U.S. government's official web portal to all federal, state and local government web resources and services.